Time;durP1;ratioP1;P1;durP2;ratioP2;P2;SDS_P1;SDS_P2;PMS_P1;PMS_P2;Temp;Humidity;BMP_temperature;BMP_pressure;BME280_temperature;BME280_humidity;BME280_pressure;Samples;Min_cycle;Max_cycle;Signal;HPM_P1;HPM_P2
2022/04/13 00:00:13;;;;;;;6.60;1.50;;;21.40;99.90;;;;;;5039133;28;20018;-65
2022/04/13 00:02:40;;;;;;;5.53;1.63;;;21.40;99.90;;;;;;5039646;28;20392;-65
2022/04/13 00:05:09;;;;;;;5.10;1.95;;;21.70;99.90;;;;;;5039537;28;20025;-65
2022/04/13 00:07:37;;;;;;;4.95;1.75;;;21.60;99.90;;;;;;5040967;28;20033;-66
2022/04/13 00:10:05;;;;;;;4.60;1.95;;;21.50;99.90;;;;;;5042171;28;20329;-65
2022/04/13 00:12:32;;;;;;;5.60;1.48;;;21.60;99.90;;;;;;5045405;28;20025;-66
2022/04/13 00:14:59;;;;;;;3.83;2.05;;;21.80;99.90;;;;;;5042031;28;20033;-64
2022/04/13 00:17:26;;;;;;;6.32;1.70;;;21.60;99.90;;;;;;5042225;28;20454;-65
2022/04/13 00:19:53;;;;;;;5.95;1.40;;;21.70;99.90;;;;;;5037774;28;20473;-66
2022/04/13 00:22:20;;;;;;;2.78;1.27;;;21.60;99.90;;;;;;5034947;28;20112;-67
2022/04/13 00:24:47;;;;;;;2.58;1.35;;;21.70;99.90;;;;;;5041078;28;20056;-64
2022/04/13 00:27:14;;;;;;;3.30;1.40;;;21.60;99.90;;;;;;5036850;28;20599;-64
2022/04/13 00:29:41;;;;;;;2.58;0.93;;;21.50;99.90;;;;;;5041998;28;20029;-66
2022/04/13 00:32:08;;;;;;;3.53;1.15;;;21.40;99.90;;;;;;5042601;28;20028;-65
2022/04/13 00:34:35;;;;;;;5.13;1.42;;;21.10;99.90;;;;;;5043493;28;20507;-65
2022/04/13 00:37:02;;;;;;;4.47;1.60;;;21.00;99.90;;;;;;5041278;28;20041;-65
2022/04/13 00:39:29;;;;;;;3.35;1.30;;;21.00;99.90;;;;;;5042216;28;20013;-67
2022/04/13 00:41:58;;;;;;;3.78;1.42;;;21.00;99.90;;;;;;5044161;28;20550;-66
2022/04/13 00:44:30;;;;;;;3.35;1.38;;;21.00;99.90;;;;;;5039322;28;20059;-64
2022/04/13 00:47:01;;;;;;;3.97;1.75;;;21.10;99.90;;;;;;5043638;28;20021;-67
2022/04/13 00:49:29;;;;;;;3.83;1.55;;;21.20;99.90;;;;;;5040803;28;20057;-66
2022/04/13 00:51:59;;;;;;;4.47;1.25;;;21.30;99.90;;;;;;5042390;28;20029;-65
2022/04/13 00:54:30;;;;;;;2.88;1.40;;;21.50;99.90;;;;;;5040095;28;20032;-65
2022/04/13 00:56:58;;;;;;;4.13;1.40;;;21.80;99.90;;;;;;5041194;28;20017;-65
2022/04/13 00:59:26;;;;;;;3.78;1.25;;;22.20;99.90;;;;;;5040909;28;20028;-66
2022/04/13 01:01:59;;;;;;;4.82;1.70;;;22.80;99.90;;;;;;5042532;28;20021;-65
2022/04/13 01:04:27;;;;;;;;;;;23.10;99.90;;;;;;5042283;28;20108;-65
2022/04/13 01:06:54;;;;;;;2.00;0.95;;;22.80;99.90;;;;;;5042070;28;20003;-64
2022/04/13 01:09:23;;;;;;;2.80;1.20;;;22.40;99.90;;;;;;5040649;28;20025;-64
2022/04/13 01:11:50;;;;;;;3.88;1.35;;;22.20;99.90;;;;;;5048955;28;20388;-64
2022/04/13 01:14:17;;;;;;;2.60;1.25;;;22.00;99.90;;;;;;5041940;28;20028;-66
2022/04/13 01:16:44;;;;;;;4.47;1.95;;;21.70;99.90;;;;;;5044329;28;20017;-66
2022/04/13 01:19:14;;;;;;;2.30;1.08;;;21.60;99.90;;;;;;5043723;28;20028;-65
2022/04/13 01:21:47;;;;;;;3.78;1.25;;;21.60;99.90;;;;;;5038783;28;20029;-66
2022/04/13 01:24:16;;;;;;;3.03;0.80;;;21.60;99.90;;;;;;5042758;28;20032;-66
2022/04/13 01:26:44;;;;;;;3.50;1.40;;;22.00;99.90;;;;;;5039033;28;20035;-67
2022/04/13 01:29:11;;;;;;;3.58;1.33;;;22.80;99.90;;;;;;5035995;28;20029;-65
2022/04/13 01:31:38;;;;;;;2.70;1.05;;;23.20;99.90;;;;;;5038182;28;20045;-65
2022/04/13 01:34:07;;;;;;;4.22;1.27;;;23.10;99.90;;;;;;5037101;28;20823;-65
2022/04/13 01:36:36;;;;;;;5.10;1.70;;;23.40;99.90;;;;;;5041218;28;20028;-65
2022/04/13 01:39:04;;;;;;;4.30;1.45;;;24.00;99.90;;;;;;5047518;28;20032;-67
2022/04/13 01:41:31;;;;;;;2.63;1.10;;;24.10;99.90;;;;;;5044458;28;20557;-66
2022/04/13 01:43:58;;;;;;;2.20;0.90;;;24.20;99.90;;;;;;5043638;28;20196;-65
2022/04/13 01:46:25;;;;;;;2.10;0.88;;;24.40;99.90;;;;;;5046143;28;20029;-67
2022/04/13 01:48:52;;;;;;;3.65;1.92;;;24.40;99.90;;;;;;5048312;28;20242;-64
2022/04/13 01:51:20;;;;;;;1.20;0.85;;;24.40;99.90;;;;;;5047147;28;20459;-65
2022/04/13 01:53:51;;;;;;;3.28;0.98;;;24.10;99.90;;;;;;5045896;28;20028;-66
2022/04/13 01:56:18;;;;;;;6.22;4.72;;;23.90;99.90;;;;;;5042214;28;20083;-66
2022/04/13 01:58:45;;;;;;;1.17;0.50;;;24.40;99.90;;;;;;5040868;28;20212;-66
2022/04/13 02:01:13;;;;;;;4.68;0.57;;;24.40;99.80;;;;;;5043591;28;20091;-67
2022/04/13 02:03:40;;;;;;;1.98;0.90;;;24.00;99.90;;;;;;5043575;28;20420;-67
2022/04/13 02:06:07;;;;;;;2.17;1.08;;;23.80;99.90;;;;;;5041807;28;20062;-65
2022/04/13 02:08:34;;;;;;;2.50;1.02;;;24.20;99.90;;;;;;5043057;28;20033;-65
2022/04/13 02:11:02;;;;;;;1.67;0.80;;;24.20;99.90;;;;;;5044722;28;20035;-68
2022/04/13 02:13:29;;;;;;;1.95;0.88;;;24.00;99.90;;;;;;5044887;28;20076;-65
2022/04/13 02:15:56;;;;;;;2.15;0.77;;;23.40;99.90;;;;;;5044259;28;20021;-65
2022/04/13 02:18:23;;;;;;;2.53;0.80;;;23.00;99.90;;;;;;5044578;28;20029;-66
2022/04/13 02:20:50;;;;;;;2.45;0.77;;;22.80;99.90;;;;;;5044250;28;20543;-67
2022/04/13 02:23:17;;;;;;;1.92;0.88;;;22.60;99.90;;;;;;5044731;28;20029;-64
2022/04/13 02:25:44;;;;;;;2.03;0.80;;;22.40;99.90;;;;;;5043570;28;20029;-66
2022/04/13 02:28:10;;;;;;;3.28;1.05;;;22.30;99.90;;;;;;5024621;28;20025;-68
2022/04/13 02:30:37;;;;;;;0.88;0.68;;;22.10;99.90;;;;;;5043173;28;20591;-67
2022/04/13 02:33:04;;;;;;;1.13;0.52;;;21.80;99.90;;;;;;5042559;28;20150;-65
2022/04/13 02:35:31;;;;;;;0.98;0.47;;;21.60;99.90;;;;;;5042574;28;20416;-66
2022/04/13 02:37:58;;;;;;;1.00;0.50;;;21.30;99.90;;;;;;5041699;28;20571;-66
2022/04/13 02:40:25;;;;;;;0.30;0.30;;;21.10;99.90;;;;;;5038974;28;20547;-65
2022/04/13 02:42:52;;;;;;;0.50;0.30;;;21.20;99.90;;;;;;5037819;28;20029;-65
2022/04/13 02:45:19;;;;;;;0.40;0.30;;;21.20;99.90;;;;;;5039414;28;20039;-64
2022/04/13 02:47:46;;;;;;;0.40;0.38;;;21.60;99.90;;;;;;5037506;28;21059;-65
2022/04/13 02:50:13;;;;;;;1.10;0.30;;;22.00;99.90;;;;;;5037728;28;20362;-69
2022/04/13 02:52:41;;;;;;;0.70;0.30;;;22.40;99.90;;;;;;5037858;28;20060;-66
2022/04/13 02:55:10;;;;;;;1.52;0.30;;;22.40;99.90;;;;;;5038819;28;20031;-64
2022/04/13 02:57:37;;;;;;;0.63;0.30;;;22.10;99.90;;;;;;4342319;28;10000739;-65
2022/04/13 03:00:05;;;;;;;1.75;0.30;;;22.30;99.90;;;;;;5037250;28;20029;-66
2022/04/13 03:02:32;;;;;;;0.85;0.30;;;22.50;99.90;;;;;;5034638;28;20056;-70
2022/04/13 03:04:59;;;;;;;3.92;1.20;;;22.50;99.90;;;;;;5035388;28;20062;-66
2022/04/13 03:07:29;;;;;;;1.92;1.20;;;22.30;99.90;;;;;;5036375;28;20029;-66
2022/04/13 03:09:56;;;;;;;5.47;3.83;;;22.60;99.90;;;;;;5034015;28;20302;-66
2022/04/13 03:12:23;;;;;;;3.08;0.95;;;23.00;99.90;;;;;;5036412;28;20037;-67
2022/04/13 03:14:53;;;;;;;1.52;0.70;;;23.30;99.90;;;;;;5035656;28;20021;-67
2022/04/13 03:17:20;;;;;;;4.68;1.00;;;23.30;99.90;;;;;;5036975;28;20024;-68
2022/04/13 03:19:48;;;;;;;4.57;0.80;;;23.50;99.90;;;;;;5035692;28;20253;-67
2022/04/13 03:22:15;;;;;;;1.05;0.63;;;23.10;99.90;;;;;;5038102;28;20029;-67
2022/04/13 03:24:42;;;;;;;2.03;0.68;;;22.60;99.90;;;;;;5037115;28;20096;-64
2022/04/13 03:27:08;;;;;;;1.38;0.90;;;22.90;99.90;;;;;;5036287;28;20028;-69
2022/04/13 03:29:35;;;;;;;2.25;0.95;;;23.40;99.90;;;;;;5034779;28;20029;-67
2022/04/13 03:32:02;;;;;;;1.13;0.80;;;23.60;99.90;;;;;;5036107;28;20139;-66
2022/04/13 03:34:30;;;;;;;2.72;0.98;;;23.50;99.90;;;;;;5034633;28;20308;-66
2022/04/13 03:36:57;;;;;;;5.13;1.38;;;23.30;99.90;;;;;;5036695;28;20816;-68
2022/04/13 03:39:24;;;;;;;2.10;0.70;;;22.90;99.90;;;;;;5034417;28;20440;-66
2022/04/13 03:41:52;;;;;;;4.90;1.27;;;22.20;99.90;;;;;;5037051;28;20021;-68
2022/04/13 03:44:20;;;;;;;2.05;0.80;;;22.30;99.90;;;;;;5035039;28;20025;-67
2022/04/13 03:46:47;;;;;;;2.95;0.90;;;22.50;99.90;;;;;;5037940;28;20036;-66
2022/04/13 03:49:14;;;;;;;1.63;0.65;;;23.10;99.90;;;;;;5036818;28;20127;-67
2022/04/13 03:51:42;;;;;;;2.70;1.33;;;23.60;99.90;;;;;;5036533;28;20029;-68
2022/04/13 03:54:09;;;;;;;3.45;0.73;;;23.30;99.90;;;;;;5037082;28;20079;-68
2022/04/13 03:56:36;;;;;;;1.27;0.68;;;23.20;99.90;;;;;;5040792;28;20595;-68
2022/04/13 03:59:10;;;;;;;0.60;0.40;;;22.80;99.90;;;;;;5039030;28;20456;-67
2022/04/13 04:01:37;;;;;;;1.20;0.80;;;22.30;99.90;;;;;;5037684;28;20354;-67
2022/04/13 04:04:04;;;;;;;1.20;0.70;;;22.10;99.90;;;;;;5037564;28;20059;-67
2022/04/13 04:06:31;;;;;;;0.98;0.80;;;21.80;99.90;;;;;;5038629;28;20470;-69
2022/04/13 04:08:57;;;;;;;1.58;0.80;;;21.50;99.90;;;;;;5038710;28;20032;-65
2022/04/13 04:11:24;;;;;;;2.60;0.93;;;21.40;99.90;;;;;;5038752;28;20766;-65
2022/04/13 04:13:51;;;;;;;2.10;0.77;;;21.10;99.90;;;;;;5040376;28;20017;-67
2022/04/13 04:16:18;;;;;;;0.82;0.57;;;21.00;99.90;;;;;;5038079;28;20640;-65
2022/04/13 04:18:48;;;;;;;0.40;0.40;;;20.90;99.90;;;;;;5039773;28;20056;-65
2022/04/13 04:21:16;;;;;;;1.33;0.47;;;20.80;99.90;;;;;;5039563;28;20342;-66
2022/04/13 04:23:43;;;;;;;1.13;0.60;;;20.80;99.90;;;;;;5039541;28;20025;-65
2022/04/13 04:26:11;;;;;;;0.63;0.40;;;21.20;99.90;;;;;;5038892;28;20028;-66
2022/04/13 04:28:39;;;;;;;0.95;0.50;;;21.10;99.90;;;;;;5040034;28;20025;-72
2022/04/13 04:31:05;;;;;;;0.32;0.32;;;21.00;99.90;;;;;;5042778;28;20361;-69
2022/04/13 04:33:32;;;;;;;0.80;0.50;;;20.90;99.90;;;;;;5039821;28;20499;-65
2022/04/13 04:35:59;;;;;;;2.55;0.55;;;20.60;99.90;;;;;;5039523;28;20024;-67
2022/04/13 04:38:30;;;;;;;1.10;0.60;;;20.50;99.90;;;;;;5039926;28;20041;-67
2022/04/13 04:40:57;;;;;;;0.73;0.43;;;20.30;99.90;;;;;;5039537;28;20040;-66
2022/04/13 04:43:24;;;;;;;0.70;0.50;;;20.10;99.90;;;;;;5037265;28;20503;-65
2022/04/13 04:45:52;;;;;;;2.17;0.70;;;20.00;99.90;;;;;;5038922;28;20029;-64
2022/04/13 04:48:19;;;;;;;1.05;0.68;;;20.00;99.90;;;;;;5039318;28;20025;-65
2022/04/13 04:50:46;;;;;;;0.85;0.65;;;19.90;99.90;;;;;;5038572;28;20447;-67
2022/04/13 04:53:13;;;;;;;1.10;0.60;;;19.90;99.90;;;;;;5040119;28;20028;-65
2022/04/13 04:55:42;;;;;;;1.05;0.60;;;20.00;99.90;;;;;;5039216;28;20032;-65
2022/04/13 04:58:10;;;;;;;1.45;0.60;;;20.00;99.90;;;;;;5038798;28;20534;-66
2022/04/13 05:00:39;;;;;;;5.53;3.47;;;20.10;99.90;;;;;;5038764;28;20498;-66
2022/04/13 05:03:06;;;;;;;1.17;0.63;;;20.40;99.90;;;;;;5039309;28;20983;-68
2022/04/13 05:05:33;;;;;;;0.75;0.60;;;20.60;99.90;;;;;;5038243;28;20163;-67
2022/04/13 05:07:59;;;;;;;0.75;0.65;;;20.70;99.90;;;;;;5039013;28;20429;-66
2022/04/13 05:10:26;;;;;;;1.33;0.60;;;20.70;99.90;;;;;;5038475;28;20029;-65
2022/04/13 05:12:56;;;;;;;1.10;0.50;;;20.60;99.90;;;;;;5039055;28;20029;-66
2022/04/13 05:15:23;;;;;;;1.35;0.38;;;20.70;99.90;;;;;;5038502;28;20017;-65
2022/04/13 05:17:50;;;;;;;0.70;0.60;;;21.10;99.90;;;;;;5037818;28;20505;-65
2022/04/13 05:20:17;;;;;;;1.40;0.60;;;21.30;99.90;;;;;;5038019;28;20029;-68
2022/04/13 05:22:44;;;;;;;0.30;0.30;;;21.60;99.90;;;;;;5039095;28;20386;-66
2022/04/13 05:25:15;;;;;;;0.70;0.43;;;21.50;99.90;;;;;;5039280;28;20037;-66
2022/04/13 05:27:44;;;;;;;0.80;0.80;;;21.20;99.90;;;;;;5038350;28;20086;-67
2022/04/13 05:30:15;;;;;;;0.88;0.57;;;20.80;99.90;;;;;;5038659;28;20055;-66
2022/04/13 05:32:47;;;;;;;1.30;0.60;;;20.70;99.90;;;;;;5021312;28;20361;-67
2022/04/13 05:35:14;;;;;;;1.15;0.57;;;20.60;99.90;;;;;;5037634;28;20021;-68
2022/04/13 05:37:41;;;;;;;2.42;0.70;;;20.30;99.90;;;;;;5038975;28;20045;-68
2022/04/13 05:40:08;;;;;;;1.50;0.40;;;20.20;99.90;;;;;;5038966;28;20490;-66
2022/04/13 05:42:35;;;;;;;1.67;0.73;;;20.00;99.90;;;;;;5042421;28;20083;-66
2022/04/13 05:45:02;;;;;;;0.93;0.50;;;19.80;99.90;;;;;;5040866;28;20037;-67
2022/04/13 05:47:29;;;;;;;0.88;0.50;;;19.70;99.90;;;;;;5041961;28;20029;-68
2022/04/13 05:49:56;;;;;;;0.40;0.40;;;19.60;99.90;;;;;;5040305;28;20037;-68
2022/04/13 05:52:23;;;;;;;1.17;0.50;;;19.50;99.90;;;;;;5041199;28;20033;-69
2022/04/13 05:54:50;;;;;;;1.92;0.82;;;19.60;99.90;;;;;;5040627;28;20033;-66
2022/04/13 05:57:17;;;;;;;2.88;0.70;;;19.60;99.90;;;;;;5040255;28;20417;-69
2022/04/13 05:59:44;;;;;;;1.75;0.40;;;19.60;99.90;;;;;;5042179;28;20028;-68
2022/04/13 06:02:11;;;;;;;2.08;0.60;;;19.50;99.90;;;;;;5041902;28;20021;-67
2022/04/13 06:04:38;;;;;;;0.70;0.47;;;19.50;99.90;;;;;;5040311;28;20760;-68
2022/04/13 06:07:05;;;;;;;1.25;0.88;;;19.30;99.90;;;;;;5041452;28;20078;-66
2022/04/13 06:09:32;;;;;;;1.25;0.70;;;19.30;99.90;;;;;;5039436;28;20029;-68
2022/04/13 06:11:59;;;;;;;1.25;0.80;;;19.30;99.90;;;;;;5040859;28;20113;-68
2022/04/13 06:14:26;;;;;;;1.45;0.70;;;19.10;99.90;;;;;;5043130;28;20051;-65
2022/04/13 06:16:53;;;;;;;1.23;0.65;;;18.90;99.90;;;;;;5040638;28;20273;-68
2022/04/13 06:19:19;;;;;;;1.52;0.63;;;18.80;99.90;;;;;;5038567;28;20404;-66
2022/04/13 06:21:47;;;;;;;1.73;0.80;;;18.70;99.90;;;;;;5038864;28;20450;-66
2022/04/13 06:24:13;;;;;;;2.45;1.13;;;18.70;99.90;;;;;;5022808;28;20024;-66
2022/04/13 06:26:40;;;;;;;1.60;1.17;;;18.50;99.90;;;;;;5040657;28;20380;-67
2022/04/13 06:29:07;;;;;;;2.05;0.73;;;18.60;99.90;;;;;;5039054;28;20447;-67
2022/04/13 06:31:34;;;;;;;0.63;0.50;;;18.40;99.90;;;;;;5037777;28;20024;-68
2022/04/13 06:34:01;;;;;;;1.55;0.55;;;18.30;99.90;;;;;;5036309;28;20033;-66
2022/04/13 06:36:28;;;;;;;1.85;0.70;;;18.20;99.90;;;;;;5018632;28;20025;-68
2022/04/13 06:38:55;;;;;;;0.98;0.63;;;18.30;99.90;;;;;;5035809;28;20033;-66
2022/04/13 06:41:22;;;;;;;5.25;4.20;;;18.30;99.90;;;;;;5035691;28;20037;-67
2022/04/13 06:43:52;;;;;;;1.08;0.77;;;18.20;99.90;;;;;;5031720;28;20033;-67
2022/04/13 06:46:19;;;;;;;1.00;0.88;;;18.10;99.90;;;;;;5033151;28;20025;-67
2022/04/13 06:48:46;;;;;;;1.35;0.73;;;18.00;99.90;;;;;;5036493;28;20124;-67
2022/04/13 06:51:14;;;;;;;1.33;0.93;;;17.90;99.90;;;;;;5035847;28;20033;-66
2022/04/13 06:53:41;;;;;;;0.70;0.60;;;17.90;99.90;;;;;;5037587;28;20028;-69
2022/04/13 06:56:08;;;;;;;1.58;0.80;;;17.80;99.90;;;;;;5038260;28;20060;-65
2022/04/13 06:58:35;;;;;;;2.80;1.00;;;17.70;99.90;;;;;;5037085;28;20036;-66
2022/04/13 07:01:02;;;;;;;2.40;0.90;;;17.60;99.90;;;;;;5036908;28;20128;-71
2022/04/13 07:03:29;;;;;;;2.08;0.98;;;17.40;99.90;;;;;;5038041;28;20032;-69
2022/04/13 07:05:56;;;;;;;1.92;0.90;;;17.30;99.90;;;;;;5038449;28;20424;-64
2022/04/13 07:08:23;;;;;;;2.58;0.80;;;17.30;99.90;;;;;;5035190;28;20324;-66
2022/04/13 07:10:50;;;;;;;1.20;0.93;;;17.30;99.90;;;;;;5035948;28;20290;-66
2022/04/13 07:13:17;;;;;;;0.93;0.77;;;17.40;99.90;;;;;;5036426;28;20024;-70
2022/04/13 07:15:44;;;;;;;2.53;1.38;;;17.30;99.90;;;;;;5035763;28;20094;-71
2022/04/13 07:18:11;;;;;;;1.13;0.80;;;17.30;99.90;;;;;;5034061;28;20036;-73
2022/04/13 07:20:38;;;;;;;2.85;1.15;;;17.40;99.90;;;;;;5035160;28;20043;-66
2022/04/13 07:23:05;;;;;;;1.83;1.38;;;17.30;99.90;;;;;;5035917;28;20021;-65
2022/04/13 07:25:32;;;;;;;1.60;1.08;;;17.20;99.90;;;;;;5036699;28;20029;-66
2022/04/13 07:27:59;;;;;;;2.92;1.33;;;17.30;99.90;;;;;;5036311;28;20060;-67
2022/04/13 07:30:26;;;;;;;1.25;0.80;;;17.30;99.90;;;;;;5035145;28;20033;-72
2022/04/13 07:32:55;;;;;;;1.95;1.35;;;17.40;99.90;;;;;;5036211;28;20025;-66
2022/04/13 07:35:22;;;;;;;1.10;0.73;;;17.40;99.90;;;;;;5036852;28;20100;-66
2022/04/13 07:37:49;;;;;;;2.58;0.90;;;17.30;99.90;;;;;;5033785;28;20795;-67
2022/04/13 07:40:17;;;;;;;1.35;0.85;;;17.40;99.90;;;;;;5040312;28;20036;-74
2022/04/13 07:42:44;;;;;;;0.77;0.77;;;17.40;99.90;;;;;;5042348;28;20024;-66
2022/04/13 07:45:12;;;;;;;0.75;0.65;;;17.30;99.90;;;;;;5041714;28;20558;-66
2022/04/13 07:47:39;;;;;;;1.70;0.88;;;17.30;99.90;;;;;;5041262;28;20056;-67
2022/04/13 07:50:11;;;;;;;1.38;0.95;;;17.20;99.90;;;;;;5042029;28;20043;-72
2022/04/13 07:52:40;;;;;;;2.05;1.00;;;17.20;99.90;;;;;;5045374;28;20071;-68
2022/04/13 07:55:09;;;;;;;2.83;1.75;;;17.20;99.90;;;;;;5047817;28;20491;-69
2022/04/13 07:57:38;;;;;;;4.78;2.50;;;17.20;99.90;;;;;;5046142;28;20128;-70
2022/04/13 08:00:09;;;;;;;2.03;0.95;;;17.30;99.90;;;;;;5049791;28;20028;-69
2022/04/13 08:02:38;;;;;;;0.95;0.75;;;17.30;99.90;;;;;;5045961;28;20045;-77
2022/04/13 08:05:06;;;;;;;1.55;1.15;;;17.30;99.90;;;;;;5048100;28;20077;-70
2022/04/13 08:07:33;;;;;;;1.50;0.80;;;17.20;99.90;;;;;;5053425;28;20043;-77
2022/04/13 08:10:01;;;;;;;5.45;1.45;;;17.10;99.90;;;;;;5055937;28;20028;-76
2022/04/13 08:12:29;;;;;;;1.92;1.10;;;17.10;99.90;;;;;;5042008;28;20132;-69
2022/04/13 08:14:57;;;;;;;1.88;1.20;;;17.10;99.90;;;;;;5041893;28;20067;-73
2022/04/13 08:17:26;;;;;;;2.22;1.20;;;17.10;99.90;;;;;;5055321;28;20028;-69
2022/04/13 08:19:56;;;;;;;1.63;1.20;;;17.00;99.90;;;;;;5055219;28;20037;-74
2022/04/13 08:22:24;;;;;;;1.65;1.27;;;17.00;99.90;;;;;;5039591;28;20049;-75
2022/04/13 08:24:51;;;;;;;1.30;0.98;;;17.00;99.90;;;;;;5040115;28;20025;-69
2022/04/13 08:27:18;;;;;;;2.08;1.38;;;17.00;99.90;;;;;;5055454;28;20131;-75
2022/04/13 08:29:49;;;;;;;3.58;1.10;;;17.00;99.90;;;;;;5056075;28;20056;-68
2022/04/13 08:32:20;;;;;;;2.75;1.38;;;17.10;99.90;;;;;;5040576;28;20021;-69
2022/04/13 08:34:49;;;;;;;1.90;1.15;;;17.00;99.90;;;;;;5038895;28;20024;-69
2022/04/13 08:37:16;;;;;;;2.38;1.10;;;16.90;99.90;;;;;;5055480;28;20041;-69
2022/04/13 08:39:44;;;;;;;2.10;1.38;;;17.00;99.90;;;;;;5051876;28;20024;-68
2022/04/13 08:42:15;;;;;;;1.92;1.30;;;17.10;99.90;;;;;;5039135;28;20029;-69
2022/04/13 08:44:50;;;;;;;3.50;1.95;;;17.00;99.90;;;;;;5047657;28;20024;-69
2022/04/13 08:47:22;;;;;;;3.08;1.65;;;16.90;99.90;;;;;;5036191;28;20040;-72
2022/04/13 08:49:52;;;;;;;3.47;2.33;;;16.90;99.90;;;;;;5054518;28;20437;-69
2022/04/13 08:52:39;;;;;;;4.32;3.22;;;16.80;99.90;;;;;;5052422;28;20144;-74
2022/04/13 08:55:09;;;;;;;5.38;2.50;;;16.80;99.90;;;;;;5041388;28;20500;-69
2022/04/13 08:57:46;;;;;;;2.95;2.50;;;16.80;99.90;;;;;;5041405;28;20092;-74
2022/04/13 09:00:18;;;;;;;2.53;2.10;;;16.80;99.90;;;;;;5051163;28;20039;-73
2022/04/13 09:02:48;;;;;;;5.43;2.55;;;16.70;99.90;;;;;;5053981;28;20751;-73
2022/04/13 09:05:24;;;;;;;4.85;2.65;;;16.80;99.90;;;;;;5040574;28;20033;-70
2022/04/13 09:08:13;;;;;;;2.75;2.40;;;16.70;99.90;;;;;;5043272;28;20028;-69
2022/04/13 09:10:41;;;;;;;4.88;2.00;;;16.70;99.90;;;;;;5045004;28;20025;-70
2022/04/13 09:13:11;;;;;;;3.03;1.70;;;16.60;99.90;;;;;;5049707;28;20504;-73
2022/04/13 09:15:40;;;;;;;2.95;1.60;;;16.50;99.90;;;;;;5039733;28;20017;-70
2022/04/13 09:18:11;;;;;;;3.30;1.58;;;16.40;99.90;;;;;;5045232;28;20032;-74
2022/04/13 09:20:39;;;;;;;1.77;1.30;;;16.40;99.90;;;;;;5044503;28;20087;-75
2022/04/13 09:23:07;;;;;;;4.10;1.40;;;16.40;99.90;;;;;;5052395;28;20506;-70
2022/04/13 09:25:36;;;;;;;1.83;1.30;;;16.50;99.90;;;;;;5041679;28;20021;-75
2022/04/13 09:28:04;;;;;;;2.47;1.48;;;16.40;99.90;;;;;;5044538;28;20403;-74
2022/04/13 09:30:33;;;;;;;5.68;1.65;;;16.40;99.90;;;;;;5050266;28;20509;-70
2022/04/13 09:33:05;;;;;;;3.95;1.67;;;16.40;99.90;;;;;;5031155;28;20029;-75
2022/04/13 09:35:33;;;;;;;1.33;1.23;;;16.50;99.90;;;;;;5038165;28;20173;-74
2022/04/13 09:38:05;;;;;;;2.15;1.33;;;16.40;99.90;;;;;;5043384;28;20040;-70
2022/04/13 09:40:36;;;;;;;3.30;1.47;;;16.30;99.90;;;;;;5037757;28;20028;-70
2022/04/13 09:43:14;;;;;;;2.00;1.65;;;16.30;99.90;;;;;;5039290;28;20342;-75
2022/04/13 09:45:46;;;;;;;2.50;1.80;;;16.30;99.90;;;;;;5040275;28;20036;-75
2022/04/13 09:48:15;;;;;;;3.57;1.63;;;16.30;99.90;;;;;;5046538;28;20040;-75
2022/04/13 09:50:44;;;;;;;3.55;2.03;;;16.30;99.90;;;;;;5020690;28;20040;-75
2022/04/13 09:53:13;;;;;;;3.50;2.03;;;16.40;99.90;;;;;;5019081;28;20056;-70
2022/04/13 09:55:44;;;;;;;3.95;1.70;;;16.40;99.90;;;;;;5041061;28;20067;-75
2022/04/13 09:58:17;;;;;;;2.35;1.55;;;16.30;99.90;;;;;;5041966;28;20098;-74
2022/04/13 10:00:47;;;;;;;1.83;1.50;;;16.30;99.90;;;;;;5042630;28;20023;-75
2022/04/13 10:03:22;;;;;;;4.18;1.55;;;16.30;99.90;;;;;;5040872;28;20097;-71
2022/04/13 10:05:52;;;;;;;2.03;1.65;;;16.40;99.90;;;;;;5039883;28;20039;-70
2022/04/13 10:08:24;;;;;;;5.45;1.80;;;16.40;99.90;;;;;;5046211;28;20034;-75
2022/04/13 10:10:53;;;;;;;5.27;2.37;;;16.40;99.90;;;;;;5038806;28;20033;-75
2022/04/13 10:13:42;;;;;;;4.22;3.20;;;16.40;99.90;;;;;;5041719;28;20289;-70
2022/04/13 10:16:16;;;;;;;5.72;3.08;;;16.30;99.90;;;;;;5040102;28;20033;-70
2022/04/13 10:18:54;;;;;;;4.15;3.75;;;16.30;99.90;;;;;;5044746;28;20016;-75
2022/04/13 10:21:40;;;;;;;5.28;3.05;;;16.30;99.90;;;;;;5040190;28;20067;-75
2022/04/13 10:24:10;;;;;;;3.65;2.35;;;16.30;99.90;;;;;;5034138;28;20018;-74
2022/04/13 10:26:39;;;;;;;4.63;2.00;;;16.30;99.90;;;;;;5043987;28;20135;-69
2022/04/13 10:29:17;;;;;;;2.72;2.05;;;16.40;99.90;;;;;;5043445;28;20029;-72
2022/04/13 10:32:06;;;;;;;2.85;2.08;;;16.40;99.90;;;;;;5042954;28;20055;-73
2022/04/13 10:34:50;;;;;;;2.50;2.22;;;16.40;99.90;;;;;;5035501;28;20033;-70
2022/04/13 10:37:23;;;;;;;3.22;2.80;;;16.40;99.90;;;;;;5069094;22;20061;-70
2022/04/13 10:39:52;;;;;;;3.40;3.10;;;16.40;99.90;;;;;;5027484;28;20027;-70
2022/04/13 10:42:22;;;;;;;4.78;4.25;;;16.40;99.90;;;;;;5023199;28;20029;-71
2022/04/13 10:45:07;;;;;;;5.10;3.63;;;16.40;99.90;;;;;;5022597;28;20086;-75
2022/04/13 10:47:52;;;;;;;4.28;3.78;;;16.30;99.90;;;;;;5018579;28;20034;-68
2022/04/13 10:50:40;;;;;;;7.05;4.28;;;16.30;99.90;;;;;;5016904;28;20040;-69
2022/04/13 10:53:23;;;;;;;3.10;2.50;;;16.30;99.90;;;;;;4969859;28;20046;-71
2022/04/13 10:55:59;;;;;;;8.13;3.20;;;16.30;99.90;;;;;;4973796;28;20034;-67
2022/04/13 10:58:52;;;;;;;5.57;2.70;;;16.30;99.90;;;;;;4973050;28;20125;-68
2022/04/13 11:01:21;;;;;;;4.00;2.92;;;16.30;99.90;;;;;;4971245;28;20038;-67
2022/04/13 11:03:48;;;;;;;3.92;2.88;;;16.20;99.90;;;;;;4969987;28;20030;-74
2022/04/13 11:06:16;;;;;;;6.03;4.32;;;16.30;99.90;;;;;;4972661;28;20022;-68
2022/04/13 11:08:46;;;;;;;4.13;3.72;;;16.30;99.90;;;;;;4974333;28;20026;-67
2022/04/13 11:11:23;;;;;;;3.50;2.40;;;16.30;99.90;;;;;;4972115;28;20149;-66
2022/04/13 11:13:52;;;;;;;4.28;1.73;;;16.30;99.90;;;;;;4971836;28;20034;-75
2022/04/13 11:16:21;;;;;;;2.13;1.42;;;16.30;99.90;;;;;;4980572;28;20626;-72
2022/04/13 11:19:06;;;;;;;3.15;2.00;;;16.30;99.90;;;;;;4980903;28;20186;-71
2022/04/13 11:21:55;;;;;;;3.53;2.30;;;16.30;99.90;;;;;;4979432;28;20038;-72
2022/04/13 11:24:42;;;;;;;1.95;1.67;;;16.30;99.90;;;;;;4980652;28;20056;-71
2022/04/13 11:27:11;;;;;;;2.30;1.27;;;16.30;99.90;;;;;;4981439;28;20034;-66
2022/04/13 11:29:40;;;;;;;3.88;1.63;;;16.30;99.90;;;;;;4989587;28;20399;-66
2022/04/13 11:32:24;;;;;;;3.42;1.30;;;16.20;99.90;;;;;;5023422;28;20049;-72
2022/04/13 11:34:51;;;;;;;2.75;1.30;;;16.20;99.90;;;;;;5024337;28;20030;-73
2022/04/13 11:37:20;;;;;;;2.15;1.30;;;16.20;99.90;;;;;;5024978;28;20064;-71
2022/04/13 11:39:50;;;;;;;3.30;2.00;;;16.20;99.90;;;;;;5025471;28;20400;-72
2022/04/13 11:42:32;;;;;;;3.22;1.85;;;16.30;99.90;;;;;;5022443;28;20122;-72
2022/04/13 11:45:05;;;;;;;2.55;1.90;;;16.30;99.90;;;;;;5021490;28;20030;-73
2022/04/13 11:47:53;;;;;;;2.20;1.80;;;16.30;99.90;;;;;;5023868;28;20025;-71
2022/04/13 11:50:22;;;;;;;3.47;1.75;;;16.30;99.90;;;;;;5024227;28;20385;-65
2022/04/13 11:52:53;;;;;;;4.30;2.30;;;16.30;99.90;;;;;;5026193;28;20048;-67
2022/04/13 11:55:26;;;;;;;5.32;2.15;;;16.20;99.90;;;;;;5021487;28;20600;-66
2022/04/13 11:58:08;;;;;;;2.13;1.70;;;16.10;99.90;;;;;;5025502;28;20540;-66
2022/04/13 12:00:38;;;;;;;3.28;2.15;;;15.90;99.90;;;;;;5021627;28;20029;-67
2022/04/13 12:03:17;;;;;;;3.92;2.00;;;15.80;99.90;;;;;;5021141;28;20037;-65
2022/04/13 12:05:52;;;;;;;4.05;2.20;;;15.70;99.90;;;;;;5019713;28;20423;-64
2022/04/13 12:08:48;;;;;;;5.78;2.25;;;15.60;99.90;;;;;;5018606;28;20022;-68
2022/04/13 12:11:18;;;;;;;1.77;1.40;;;15.60;99.90;;;;;;5019599;28;20030;-67
2022/04/13 12:13:56;;;;;;;5.07;2.20;;;15.40;99.90;;;;;;5018793;28;20033;-65
2022/04/13 12:16:29;;;;;;;2.53;1.98;;;15.40;99.90;;;;;;5018977;28;20040;-65
2022/04/13 12:19:01;;;;;;;4.28;2.13;;;15.50;99.90;;;;;;5017448;28;20108;-67
2022/04/13 12:21:31;;;;;;;;;;;15.40;99.90;;;;;;5019091;28;20044;-68
2022/04/13 12:24:01;;;;;;;5.03;1.77;;;15.30;99.90;;;;;;5016938;28;19920;-68
2022/04/13 12:26:39;;;;;;;3.10;2.10;;;15.30;99.90;;;;;;5014102;28;20033;-66
2022/04/13 12:29:18;;;;;;;2.50;1.50;;;15.20;99.90;;;;;;5019106;28;20034;-67
2022/04/13 12:32:03;;;;;;;3.88;1.92;;;15.20;99.90;;;;;;5012688;28;20041;-69
2022/04/13 12:34:30;;;;;;;4.00;1.95;;;15.10;99.90;;;;;;5017626;28;20395;-67
2022/04/13 12:36:59;;;;;;;4.18;1.70;;;15.20;99.90;;;;;;5016023;28;20026;-68
2022/04/13 12:39:27;;;;;;;3.90;2.17;;;15.10;99.90;;;;;;5018903;28;20029;-67
2022/04/13 12:41:55;;;;;;;3.20;1.98;;;15.00;99.90;;;;;;5019538;28;20113;-70
2022/04/13 12:44:22;;;;;;;3.05;2.00;;;14.90;99.90;;;;;;5018380;28;20446;-69
2022/04/13 12:46:50;;;;;;;3.70;2.97;;;14.90;99.90;;;;;;5025280;28;20505;-68
2022/04/13 12:49:22;;;;;;;3.35;2.78;;;14.90;99.90;;;;;;5026415;28;20026;-66
2022/04/13 12:51:55;;;;;;;5.38;2.95;;;14.90;99.90;;;;;;5026758;28;20025;-68
2022/04/13 12:54:22;;;;;;;5.88;3.17;;;14.90;99.90;;;;;;5020985;28;20025;-67
2022/04/13 12:56:51;;;;;;;9.40;3.10;;;14.90;99.90;;;;;;5026020;28;20895;-69
2022/04/13 12:59:25;;;;;;;4.88;2.75;;;14.80;99.90;;;;;;5026339;28;20068;-69